Main page
METAR-TAF:

METAR-TAF

Airports :

Istres-Le Tubé Air Base

Istres, France

latitude: 43-31N, longitude: 004-56E, elevation: 23 m

Current weather observation

The report was made 28 minutes ago, at 11:30 UTC
Wind 9 kt from the North
Temperature 11°C
Humidity 54%
Pressure 1015 hPa
Visibility 10 km or more
no clouds below 1500 m and no cumulonimbus

METAR: LFMI 061130Z AUTO 01009KT CAVOK 11/02 Q1015 NOSIG

Time: 12:58 (11:58 UTC)

Forecast

The report was made 3 hours and 58 minutes ago, at 08:00 UTC
Forecast valid from 06 at 09 UTC to 07 at 09 UTC
Wind 10 kt from the North
Visibility 10 km or more
no clouds below 1500 m and no cumulonimbus

TAF: LFMI 060800Z 0609/0709 01010KT CAVOK TX11/0613Z TN02/0704Z

Weather observations and forecasts of more than 4000 airports (METAR and TAF reports).

The available stations are represented by yellow and red dots on the map.

Hover mouse over dot to see the name of the station.

Then click to see weather observations and forecasts.

To change the map : click on the green buttons with a black cross to zoom in, on the green button with a dash to zoom out, or on the green arrows for adjacent maps.


METAR-TAF: